sensor_id;sensor_type;location;lat;lon;timestamp;P1;durP1;ratioP1;P2;durP2;ratioP2
64295;SDS011;51082;38.236;15.432;2022-08-04T00:00:52;1.10;;;1.00;;
64295;SDS011;51082;38.236;15.432;2022-08-04T00:02:09;1.05;;;0.95;;
64295;SDS011;51082;38.236;15.432;2022-08-04T00:03:17;1.05;;;0.80;;
64295;SDS011;51082;38.236;15.432;2022-08-04T00:04:27;0.82;;;0.80;;
64295;SDS011;51082;38.236;15.432;2022-08-04T00:05:48;0.88;;;0.88;;
64295;SDS011;51082;38.236;15.432;2022-08-04T00:06:59;1.25;;;1.15;;
64295;SDS011;51082;38.236;15.432;2022-08-04T00:08:11;1.17;;;0.88;;
64295;SDS011;51082;38.236;15.432;2022-08-04T00:09:24;0.93;;;0.90;;
64295;SDS011;51082;38.236;15.432;2022-08-04T00:10:32;0.77;;;0.75;;
64295;SDS011;51082;38.236;15.432;2022-08-04T00:11:34;0.85;;;0.85;;
64295;SDS011;51082;38.236;15.432;2022-08-04T00:12:40;1.15;;;0.88;;
64295;SDS011;51082;38.236;15.432;2022-08-04T00:13:47;0.70;;;0.70;;
64295;SDS011;51082;38.236;15.432;2022-08-04T00:14:54;1.00;;;0.95;;
64295;SDS011;51082;38.236;15.432;2022-08-04T00:16:01;1.10;;;1.00;;
64295;SDS011;51082;38.236;15.432;2022-08-04T00:17:06;0.95;;;0.93;;
64295;SDS011;51082;38.236;15.432;2022-08-04T00:18:09;1.30;;;1.20;;
64295;SDS011;51082;38.236;15.432;2022-08-04T00:19:20;1.27;;;1.00;;
64295;SDS011;51082;38.236;15.432;2022-08-04T00:20:28;3.80;;;1.00;;
64295;SDS011;51082;38.236;15.432;2022-08-04T00:21:35;0.82;;;0.82;;
64295;SDS011;51082;38.236;15.432;2022-08-04T00:22:39;1.48;;;1.23;;
64295;SDS011;51082;38.236;15.432;2022-08-04T00:23:46;0.60;;;0.60;;
64295;SDS011;51082;38.236;15.432;2022-08-04T00:24:49;0.80;;;0.80;;
64295;SDS011;51082;38.236;15.432;2022-08-04T00:25:52;0.75;;;0.73;;
64295;SDS011;51082;38.236;15.432;2022-08-04T00:26:55;1.30;;;1.08;;
64295;SDS011;51082;38.236;15.432;2022-08-04T00:27:59;4.45;;;1.00;;
64295;SDS011;51082;38.236;15.432;2022-08-04T00:29:01;1.50;;;0.90;;
64295;SDS011;51082;38.236;15.432;2022-08-04T00:30:05;0.90;;;0.80;;
64295;SDS011;51082;38.236;15.432;2022-08-04T00:31:07;0.75;;;0.75;;
64295;SDS011;51082;38.236;15.432;2022-08-04T00:32:11;0.70;;;0.70;;
64295;SDS011;51082;38.236;15.432;2022-08-04T00:33:17;0.70;;;0.70;;
64295;SDS011;51082;38.236;15.432;2022-08-04T00:34:19;0.80;;;0.80;;
64295;SDS011;51082;38.236;15.432;2022-08-04T00:35:24;2.58;;;1.05;;
64295;SDS011;51082;38.236;15.432;2022-08-04T00:36:28;0.90;;;0.90;;
64295;SDS011;51082;38.236;15.432;2022-08-04T00:37:33;2.55;;;0.75;;
64295;SDS011;51082;38.236;15.432;2022-08-04T00:38:38;0.65;;;0.65;;
64295;SDS011;51082;38.236;15.432;2022-08-04T00:39:41;0.90;;;0.80;;
64295;SDS011;51082;38.236;15.432;2022-08-04T00:40:47;1.25;;;0.80;;
64295;SDS011;51082;38.236;15.432;2022-08-04T00:43:43;0.82;;;0.80;;
64295;SDS011;51082;38.236;15.432;2022-08-04T00:45:15;1.13;;;1.02;;
64295;SDS011;51082;38.236;15.432;2022-08-04T00:46:58;1.05;;;0.93;;
64295;SDS011;51082;38.236;15.432;2022-08-04T00:48:09;1.27;;;0.60;;
64295;SDS011;51082;38.236;15.432;2022-08-04T00:49:27;1.63;;;1.00;;
64295;SDS011;51082;38.236;15.432;2022-08-04T00:50:55;1.02;;;0.80;;
64295;SDS011;51082;38.236;15.432;2022-08-04T00:52:13;1.13;;;0.90;;
64295;SDS011;51082;38.236;15.432;2022-08-04T00:53:26;1.02;;;0.88;;
64295;SDS011;51082;38.236;15.432;2022-08-04T00:54:33;0.80;;;0.80;;
64295;SDS011;51082;38.236;15.432;2022-08-04T00:57:30;1.15;;;0.80;;
64295;SDS011;51082;38.236;15.432;2022-08-04T00:58:41;0.60;;;0.57;;
64295;SDS011;51082;38.236;15.432;2022-08-04T00:59:50;1.88;;;0.65;;
64295;SDS011;51082;38.236;15.432;2022-08-04T01:01:04;1.55;;;0.90;;
64295;SDS011;51082;38.236;15.432;2022-08-04T01:02:10;1.05;;;0.85;;
64295;SDS011;51082;38.236;15.432;2022-08-04T01:03:23;0.68;;;0.68;;
64295;SDS011;51082;38.236;15.432;2022-08-04T01:04:44;0.60;;;0.60;;
64295;SDS011;51082;38.236;15.432;2022-08-04T01:05:52;1.10;;;0.90;;
64295;SDS011;51082;38.236;15.432;2022-08-04T01:07:08;1.05;;;0.88;;
64295;SDS011;51082;38.236;15.432;2022-08-04T01:09:57;1.00;;;0.82;;
64295;SDS011;51082;38.236;15.432;2022-08-04T01:11:07;0.98;;;0.70;;
64295;SDS011;51082;38.236;15.432;2022-08-04T01:12:33;1.73;;;0.98;;
64295;SDS011;51082;38.236;15.432;2022-08-04T01:13:54;0.73;;;0.68;;
64295;SDS011;51082;38.236;15.432;2022-08-04T01:15:02;0.88;;;0.82;;
64295;SDS011;51082;38.236;15.432;2022-08-04T01:16:07;12.65;;;1.23;;
64295;SDS011;51082;38.236;15.432;2022-08-04T01:17:18;0.88;;;0.88;;
64295;SDS011;51082;38.236;15.432;2022-08-04T01:18:24;0.75;;;0.65;;
64295;SDS011;51082;38.236;15.432;2022-08-04T01:21:13;0.90;;;0.90;;
64295;SDS011;51082;38.236;15.432;2022-08-04T01:24:22;0.88;;;0.88;;
64295;SDS011;51082;38.236;15.432;2022-08-04T01:27:04;0.82;;;0.80;;
64295;SDS011;51082;38.236;15.432;2022-08-04T01:28:14;1.05;;;0.93;;
64295;SDS011;51082;38.236;15.432;2022-08-04T01:29:32;0.82;;;0.82;;
64295;SDS011;51082;38.236;15.432;2022-08-04T01:30:36;0.80;;;0.80;;
64295;SDS011;51082;38.236;15.432;2022-08-04T01:33:04;0.60;;;0.60;;
64295;SDS011;51082;38.236;15.432;2022-08-04T01:34:10;0.90;;;0.80;;
64295;SDS011;51082;38.236;15.432;2022-08-04T01:35:15;0.93;;;0.77;;
64295;SDS011;51082;38.236;15.432;2022-08-04T01:36:22;1.05;;;1.00;;
64295;SDS011;51082;38.236;15.432;2022-08-04T01:37:28;0.93;;;0.80;;
64295;SDS011;51082;38.236;15.432;2022-08-04T01:38:39;1.00;;;0.90;;
64295;SDS011;51082;38.236;15.432;2022-08-04T01:39:47;0.90;;;0.90;;
64295;SDS011;51082;38.236;15.432;2022-08-04T01:40:51;0.70;;;0.70;;
64295;SDS011;51082;38.236;15.432;2022-08-04T01:41:55;0.70;;;0.70;;
64295;SDS011;51082;38.236;15.432;2022-08-04T01:42:57;0.95;;;0.77;;
64295;SDS011;51082;38.236;15.432;2022-08-04T01:44:01;1.20;;;0.77;;
64295;SDS011;51082;38.236;15.432;2022-08-04T01:45:07;0.55;;;0.55;;
64295;SDS011;51082;38.236;15.432;2022-08-04T01:46:12;0.90;;;0.90;;
64295;SDS011;51082;38.236;15.432;2022-08-04T01:47:16;1.02;;;0.98;;
64295;SDS011;51082;38.236;15.432;2022-08-04T01:48:22;1.95;;;0.90;;
64295;SDS011;51082;38.236;15.432;2022-08-04T01:49:27;0.90;;;0.80;;
64295;SDS011;51082;38.236;15.432;2022-08-04T01:50:32;0.90;;;0.90;;
64295;SDS011;51082;38.236;15.432;2022-08-04T01:51:36;0.80;;;0.80;;
64295;SDS011;51082;38.236;15.432;2022-08-04T01:52:40;1.67;;;1.00;;
64295;SDS011;51082;38.236;15.432;2022-08-04T01:53:44;0.98;;;0.88;;
64295;SDS011;51082;38.236;15.432;2022-08-04T01:54:45;0.95;;;0.82;;
64295;SDS011;51082;38.236;15.432;2022-08-04T01:55:51;0.73;;;0.68;;
64295;SDS011;51082;38.236;15.432;2022-08-04T01:56:53;1.10;;;0.98;;
64295;SDS011;51082;38.236;15.432;2022-08-04T01:57:57;1.10;;;0.93;;
64295;SDS011;51082;38.236;15.432;2022-08-04T01:59:02;2.30;;;0.98;;
64295;SDS011;51082;38.236;15.432;2022-08-04T02:00:04;0.80;;;0.32;;
64295;SDS011;51082;38.236;15.432;2022-08-04T02:01:11;1.33;;;1.02;;
64295;SDS011;51082;38.236;15.432;2022-08-04T02:02:14;1.75;;;1.10;;
64295;SDS011;51082;38.236;15.432;2022-08-04T02:03:16;1.00;;;0.90;;
64295;SDS011;51082;38.236;15.432;2022-08-04T02:04:19;1.25;;;0.73;;
64295;SDS011;51082;38.236;15.432;2022-08-04T02:05:22;2.72;;;1.15;;
64295;SDS011;51082;38.236;15.432;2022-08-04T02:06:29;0.73;;;0.73;;
64295;SDS011;51082;38.236;15.432;2022-08-04T02:07:39;0.80;;;0.80;;
64295;SDS011;51082;38.236;15.432;2022-08-04T02:08:54;1.08;;;1.02;;
64295;SDS011;51082;38.236;15.432;2022-08-04T02:10:04;0.90;;;0.90;;
64295;SDS011;51082;38.236;15.432;2022-08-04T02:11:09;1.00;;;0.90;;
64295;SDS011;51082;38.236;15.432;2022-08-04T02:12:17;1.20;;;0.85;;
64295;SDS011;51082;38.236;15.432;2022-08-04T02:13:26;0.65;;;0.65;;
64295;SDS011;51082;38.236;15.432;2022-08-04T02:14:37;0.80;;;0.80;;
64295;SDS011;51082;38.236;15.432;2022-08-04T02:15:50;1.42;;;1.10;;
64295;SDS011;51082;38.236;15.432;2022-08-04T02:16:57;0.82;;;0.82;;
64295;SDS011;51082;38.236;15.432;2022-08-04T02:18:02;0.85;;;0.77;;
64295;SDS011;51082;38.236;15.432;2022-08-04T02:19:08;0.50;;;0.50;;
64295;SDS011;51082;38.236;15.432;2022-08-04T02:20:22;1.33;;;0.80;;
64295;SDS011;51082;38.236;15.432;2022-08-04T02:21:26;4.43;;;1.02;;
64295;SDS011;51082;38.236;15.432;2022-08-04T02:22:30;0.68;;;0.68;;
64295;SDS011;51082;38.236;15.432;2022-08-04T02:23:35;2.38;;;1.42;;
64295;SDS011;51082;38.236;15.432;2022-08-04T02:24:41;1.23;;;1.00;;
64295;SDS011;51082;38.236;15.432;2022-08-04T02:25:47;1.60;;;1.20;;
64295;SDS011;51082;38.236;15.432;2022-08-04T02:26:55;0.40;;;0.38;;
64295;SDS011;51082;38.236;15.432;2022-08-04T02:28:07;0.80;;;0.77;;
64295;SDS011;51082;38.236;15.432;2022-08-04T02:29:16;3.45;;;0.75;;
64295;SDS011;51082;38.236;15.432;2022-08-04T02:30:22;0.77;;;0.75;;
64295;SDS011;51082;38.236;15.432;2022-08-04T02:31:32;1.02;;;0.88;;
64295;SDS011;51082;38.236;15.432;2022-08-04T02:33:43;0.43;;;0.43;;
64295;SDS011;51082;38.236;15.432;2022-08-04T02:34:47;1.40;;;0.85;;
64295;SDS011;51082;38.236;15.432;2022-08-04T02:35:56;0.80;;;0.80;;
64295;SDS011;51082;38.236;15.432;2022-08-04T02:37:02;0.98;;;0.98;;
64295;SDS011;51082;38.236;15.432;2022-08-04T02:38:10;0.57;;;0.57;;
64295;SDS011;51082;38.236;15.432;2022-08-04T02:39:18;0.80;;;0.80;;
64295;SDS011;51082;38.236;15.432;2022-08-04T02:40:21;0.85;;;0.85;;
64295;SDS011;51082;38.236;15.432;2022-08-04T02:41:27;0.88;;;0.88;;
64295;SDS011;51082;38.236;15.432;2022-08-04T02:42:31;2.05;;;0.80;;
64295;SDS011;51082;38.236;15.432;2022-08-04T02:43:33;10.15;;;1.25;;
64295;SDS011;51082;38.236;15.432;2022-08-04T02:44:38;1.00;;;0.88;;
64295;SDS011;51082;38.236;15.432;2022-08-04T02:45:40;1.70;;;1.00;;
64295;SDS011;51082;38.236;15.432;2022-08-04T02:46:45;1.00;;;0.90;;
64295;SDS011;51082;38.236;15.432;2022-08-04T02:47:52;1.40;;;0.95;;
64295;SDS011;51082;38.236;15.432;2022-08-04T02:48:55;0.80;;;0.70;;
64295;SDS011;51082;38.236;15.432;2022-08-04T02:49:57;1.27;;;0.85;;
64295;SDS011;51082;38.236;15.432;2022-08-04T02:51:00;0.80;;;0.80;;
64295;SDS011;51082;38.236;15.432;2022-08-04T02:52:04;1.80;;;1.13;;
64295;SDS011;51082;38.236;15.432;2022-08-04T02:53:10;1.17;;;1.00;;
64295;SDS011;51082;38.236;15.432;2022-08-04T02:54:16;1.25;;;1.10;;
64295;SDS011;51082;38.236;15.432;2022-08-04T02:55:20;4.03;;;0.93;;
64295;SDS011;51082;38.236;15.432;2022-08-04T02:56:22;1.00;;;0.60;;
64295;SDS011;51082;38.236;15.432;2022-08-04T02:57:26;1.38;;;1.00;;
64295;SDS011;51082;38.236;15.432;2022-08-04T02:58:32;0.90;;;0.90;;
64295;SDS011;51082;38.236;15.432;2022-08-04T02:59:39;0.95;;;0.82;;
64295;SDS011;51082;38.236;15.432;2022-08-04T03:00:53;1.15;;;1.05;;
64295;SDS011;51082;38.236;15.432;2022-08-04T03:01:57;3.58;;;0.90;;
64295;SDS011;51082;38.236;15.432;2022-08-04T03:03:01;1.30;;;1.20;;
64295;SDS011;51082;38.236;15.432;2022-08-04T03:04:25;1.00;;;0.93;;
64295;SDS011;51082;38.236;15.432;2022-08-04T03:05:38;2.33;;;0.98;;
64295;SDS011;51082;38.236;15.432;2022-08-04T03:08:50;0.82;;;0.77;;
64295;SDS011;51082;38.236;15.432;2022-08-04T03:10:17;0.80;;;0.80;;
64295;SDS011;51082;38.236;15.432;2022-08-04T03:13:31;2.28;;;0.73;;
64295;SDS011;51082;38.236;15.432;2022-08-04T03:15:02;0.93;;;0.85;;
64295;SDS011;51082;38.236;15.432;2022-08-04T03:16:34;1.15;;;0.70;;
64295;SDS011;51082;38.236;15.432;2022-08-04T03:18:04;1.17;;;0.70;;
64295;SDS011;51082;38.236;15.432;2022-08-04T03:21:38;0.70;;;0.70;;
64295;SDS011;51082;38.236;15.432;2022-08-04T03:22:58;0.60;;;0.60;;
64295;SDS011;51082;38.236;15.432;2022-08-04T03:27:50;0.95;;;0.80;;
64295;SDS011;51082;38.236;15.432;2022-08-04T03:31:12;3.97;;;0.82;;
64295;SDS011;51082;38.236;15.432;2022-08-04T03:32:53;1.85;;;0.88;;
64295;SDS011;51082;38.236;15.432;2022-08-04T03:34:27;3.60;;;1.17;;
64295;SDS011;51082;38.236;15.432;2022-08-04T03:35:53;0.93;;;0.85;;
64295;SDS011;51082;38.236;15.432;2022-08-04T03:37:24;1.38;;;0.90;;
64295;SDS011;51082;38.236;15.432;2022-08-04T03:41:34;0.88;;;0.88;;
64295;SDS011;51082;38.236;15.432;2022-08-04T03:44:41;8.15;;;0.98;;
64295;SDS011;51082;38.236;15.432;2022-08-04T03:46:16;1.25;;;1.10;;
64295;SDS011;51082;38.236;15.432;2022-08-04T03:49:13;2.25;;;1.67;;
64295;SDS011;51082;38.236;15.432;2022-08-04T03:52:39;1.30;;;1.20;;
64295;SDS011;51082;38.236;15.432;2022-08-04T03:56:06;1.83;;;1.45;;
64295;SDS011;51082;38.236;15.432;2022-08-04T03:57:46;1.90;;;1.30;;
64295;SDS011;51082;38.236;15.432;2022-08-04T04:00:45;1.30;;;1.20;;
64295;SDS011;51082;38.236;15.432;2022-08-04T04:01:58;2.92;;;1.42;;
64295;SDS011;51082;38.236;15.432;2022-08-04T04:03:32;6.10;;;2.05;;
64295;SDS011;51082;38.236;15.432;2022-08-04T04:06:53;2.33;;;1.58;;
64295;SDS011;51082;38.236;15.432;2022-08-04T04:08:21;3.67;;;2.10;;
64295;SDS011;51082;38.236;15.432;2022-08-04T04:09:51;1.70;;;1.50;;
64295;SDS011;51082;38.236;15.432;2022-08-04T04:11:19;2.80;;;1.60;;
64295;SDS011;51082;38.236;15.432;2022-08-04T04:12:38;1.58;;;1.48;;
64295;SDS011;51082;38.236;15.432;2022-08-04T04:14:06;3.72;;;1.73;;
64295;SDS011;51082;38.236;15.432;2022-08-04T04:15:27;3.20;;;1.75;;
64295;SDS011;51082;38.236;15.432;2022-08-04T04:16:48;2.03;;;1.83;;
64295;SDS011;51082;38.236;15.432;2022-08-04T04:18:25;4.65;;;1.90;;
64295;SDS011;51082;38.236;15.432;2022-08-04T04:21:32;3.95;;;1.85;;
64295;SDS011;51082;38.236;15.432;2022-08-04T04:22:59;2.13;;;1.60;;
64295;SDS011;51082;38.236;15.432;2022-08-04T04:24:15;2.20;;;1.65;;
64295;SDS011;51082;38.236;15.432;2022-08-04T04:26:48;2.22;;;1.40;;
64295;SDS011;51082;38.236;15.432;2022-08-04T04:29:45;5.38;;;1.92;;
64295;SDS011;51082;38.236;15.432;2022-08-04T04:31:01;1.70;;;1.50;;
64295;SDS011;51082;38.236;15.432;2022-08-04T04:32:11;8.40;;;2.10;;
64295;SDS011;51082;38.236;15.432;2022-08-04T04:33:28;4.78;;;2.55;;
64295;SDS011;51082;38.236;15.432;2022-08-04T04:34:39;2.42;;;1.75;;
64295;SDS011;51082;38.236;15.432;2022-08-04T04:35:52;4.95;;;3.40;;
64295;SDS011;51082;38.236;15.432;2022-08-04T04:37:11;2.78;;;2.47;;
64295;SDS011;51082;38.236;15.432;2022-08-04T04:38:27;4.60;;;2.05;;
64295;SDS011;51082;38.236;15.432;2022-08-04T04:39:45;4.43;;;1.80;;
64295;SDS011;51082;38.236;15.432;2022-08-04T04:41:03;3.75;;;1.98;;
64295;SDS011;51082;38.236;15.432;2022-08-04T04:42:24;3.50;;;2.45;;
64295;SDS011;51082;38.236;15.432;2022-08-04T04:43:55;3.78;;;2.40;;
64295;SDS011;51082;38.236;15.432;2022-08-04T04:45:19;4.97;;;2.50;;
64295;SDS011;51082;38.236;15.432;2022-08-04T04:46:29;4.53;;;2.83;;
64295;SDS011;51082;38.236;15.432;2022-08-04T04:47:41;3.13;;;1.90;;
64295;SDS011;51082;38.236;15.432;2022-08-04T04:48:51;5.95;;;2.15;;
64295;SDS011;51082;38.236;15.432;2022-08-04T04:50:03;4.03;;;2.00;;
64295;SDS011;51082;38.236;15.432;2022-08-04T04:51:13;3.65;;;2.45;;
64295;SDS011;51082;38.236;15.432;2022-08-04T04:52:23;5.18;;;2.58;;
64295;SDS011;51082;38.236;15.432;2022-08-04T04:53:35;8.20;;;2.50;;
64295;SDS011;51082;38.236;15.432;2022-08-04T04:54:50;6.85;;;3.55;;
64295;SDS011;51082;38.236;15.432;2022-08-04T04:55:59;8.40;;;3.03;;
64295;SDS011;51082;38.236;15.432;2022-08-04T04:57:09;6.70;;;3.72;;
64295;SDS011;51082;38.236;15.432;2022-08-04T04:58:13;6.78;;;4.38;;
64295;SDS011;51082;38.236;15.432;2022-08-04T04:59:21;5.95;;;3.30;;
64295;SDS011;51082;38.236;15.432;2022-08-04T05:00:27;7.88;;;4.13;;
64295;SDS011;51082;38.236;15.432;2022-08-04T05:01:47;4.18;;;3.22;;
64295;SDS011;51082;38.236;15.432;2022-08-04T05:03:20;4.63;;;2.88;;
64295;SDS011;51082;38.236;15.432;2022-08-04T05:04:44;6.85;;;4.13;;
64295;SDS011;51082;38.236;15.432;2022-08-04T05:06:18;7.60;;;3.50;;
64295;SDS011;51082;38.236;15.432;2022-08-04T05:07:47;6.55;;;3.17;;
64295;SDS011;51082;38.236;15.432;2022-08-04T05:10:29;3.50;;;2.47;;
64295;SDS011;51082;38.236;15.432;2022-08-04T05:12:00;4.05;;;2.67;;
64295;SDS011;51082;38.236;15.432;2022-08-04T05:13:29;3.63;;;2.38;;
64295;SDS011;51082;38.236;15.432;2022-08-04T05:14:34;6.95;;;2.72;;
64295;SDS011;51082;38.236;15.432;2022-08-04T05:15:43;3.65;;;2.22;;
64295;SDS011;51082;38.236;15.432;2022-08-04T05:16:50;5.78;;;2.65;;
64295;SDS011;51082;38.236;15.432;2022-08-04T05:17:57;2.80;;;1.92;;
64295;SDS011;51082;38.236;15.432;2022-08-04T05:19:04;4.68;;;3.67;;
64295;SDS011;51082;38.236;15.432;2022-08-04T05:20:15;5.43;;;2.20;;
64295;SDS011;51082;38.236;15.432;2022-08-04T05:21:31;4.68;;;2.53;;
64295;SDS011;51082;38.236;15.432;2022-08-04T05:22:38;9.00;;;2.30;;
64295;SDS011;51082;38.236;15.432;2022-08-04T05:23:45;4.72;;;1.67;;
64295;SDS011;51082;38.236;15.432;2022-08-04T05:24:54;4.93;;;2.17;;
64295;SDS011;51082;38.236;15.432;2022-08-04T05:26:04;3.10;;;2.30;;
64295;SDS011;51082;38.236;15.432;2022-08-04T05:27:11;3.05;;;1.90;;
64295;SDS011;51082;38.236;15.432;2022-08-04T05:28:21;3.67;;;2.03;;
64295;SDS011;51082;38.236;15.432;2022-08-04T05:29:27;3.20;;;1.65;;
64295;SDS011;51082;38.236;15.432;2022-08-04T05:30:32;5.15;;;1.77;;
64295;SDS011;51082;38.236;15.432;2022-08-04T05:31:49;2.85;;;1.80;;
64295;SDS011;51082;38.236;15.432;2022-08-04T05:32:54;3.45;;;1.58;;
64295;SDS011;51082;38.236;15.432;2022-08-04T05:34:03;2.55;;;1.55;;
64295;SDS011;51082;38.236;15.432;2022-08-04T05:35:08;3.70;;;1.30;;
64295;SDS011;51082;38.236;15.432;2022-08-04T05:36:23;1.80;;;1.33;;
64295;SDS011;51082;38.236;15.432;2022-08-04T05:37:31;1.42;;;1.33;;
64295;SDS011;51082;38.236;15.432;2022-08-04T05:38:39;2.47;;;1.27;;
64295;SDS011;51082;38.236;15.432;2022-08-04T05:39:44;2.22;;;1.55;;
64295;SDS011;51082;38.236;15.432;2022-08-04T05:40:52;1.73;;;1.27;;
64295;SDS011;51082;38.236;15.432;2022-08-04T05:41:55;4.57;;;1.55;;
64295;SDS011;51082;38.236;15.432;2022-08-04T05:42:59;3.45;;;1.50;;
64295;SDS011;51082;38.236;15.432;2022-08-04T05:44:01;1.88;;;1.50;;
64295;SDS011;51082;38.236;15.432;2022-08-04T05:45:06;2.13;;;1.55;;
64295;SDS011;51082;38.236;15.432;2022-08-04T05:46:08;3.60;;;1.30;;
64295;SDS011;51082;38.236;15.432;2022-08-04T05:47:12;2.25;;;1.25;;
64295;SDS011;51082;38.236;15.432;2022-08-04T05:48:16;1.48;;;1.02;;
64295;SDS011;51082;38.236;15.432;2022-08-04T05:49:19;1.10;;;1.00;;
64295;SDS011;51082;38.236;15.432;2022-08-04T05:50:22;1.60;;;1.00;;
64295;SDS011;51082;38.236;15.432;2022-08-04T05:51:26;3.42;;;1.25;;
64295;SDS011;51082;38.236;15.432;2022-08-04T05:52:30;3.47;;;1.30;;
64295;SDS011;51082;38.236;15.432;2022-08-04T05:53:35;1.50;;;1.40;;
64295;SDS011;51082;38.236;15.432;2022-08-04T05:54:42;2.80;;;1.35;;
64295;SDS011;51082;38.236;15.432;2022-08-04T05:55:46;1.23;;;1.13;;
64295;SDS011;51082;38.236;15.432;2022-08-04T05:56:50;1.20;;;1.10;;
64295;SDS011;51082;38.236;15.432;2022-08-04T05:57:55;0.82;;;0.82;;
64295;SDS011;51082;38.236;15.432;2022-08-04T05:58:58;1.40;;;1.30;;
64295;SDS011;51082;38.236;15.432;2022-08-04T06:00:04;5.20;;;1.35;;
64295;SDS011;51082;38.236;15.432;2022-08-04T06:01:07;3.42;;;1.40;;
64295;SDS011;51082;38.236;15.432;2022-08-04T06:02:13;2.00;;;1.00;;
64295;SDS011;51082;38.236;15.432;2022-08-04T06:03:17;1.60;;;1.27;;
64295;SDS011;51082;38.236;15.432;2022-08-04T06:04:22;3.25;;;1.00;;
64295;SDS011;51082;38.236;15.432;2022-08-04T06:05:25;0.63;;;0.63;;
64295;SDS011;51082;38.236;15.432;2022-08-04T06:06:29;0.70;;;0.63;;
64295;SDS011;51082;38.236;15.432;2022-08-04T06:07:31;1.27;;;0.90;;
64295;SDS011;51082;38.236;15.432;2022-08-04T06:08:34;2.03;;;1.20;;
64295;SDS011;51082;38.236;15.432;2022-08-04T06:09:36;1.38;;;1.25;;
64295;SDS011;51082;38.236;15.432;2022-08-04T06:10:39;1.77;;;1.30;;
64295;SDS011;51082;38.236;15.432;2022-08-04T06:11:42;1.52;;;1.08;;
64295;SDS011;51082;38.236;15.432;2022-08-04T06:12:51;0.90;;;0.90;;
64295;SDS011;51082;38.236;15.432;2022-08-04T06:13:56;1.53;;;1.13;;
64295;SDS011;51082;38.236;15.432;2022-08-04T06:15:01;1.38;;;1.27;;
64295;SDS011;51082;38.236;15.432;2022-08-04T06:16:04;0.77;;;0.77;;
64295;SDS011;51082;38.236;15.432;2022-08-04T06:17:10;1.20;;;1.10;;
64295;SDS011;51082;38.236;15.432;2022-08-04T06:18:16;1.80;;;1.00;;
64295;SDS011;51082;38.236;15.432;2022-08-04T06:19:19;1.02;;;1.00;;
64295;SDS011;51082;38.236;15.432;2022-08-04T06:20:26;1.67;;;1.45;;
64295;SDS011;51082;38.236;15.432;2022-08-04T06:21:31;1.10;;;1.00;;
64295;SDS011;51082;38.236;15.432;2022-08-04T06:22:36;3.65;;;1.17;;
64295;SDS011;51082;38.236;15.432;2022-08-04T06:23:43;1.45;;;1.10;;
64295;SDS011;51082;38.236;15.432;2022-08-04T06:24:47;1.10;;;1.00;;
64295;SDS011;51082;38.236;15.432;2022-08-04T06:25:59;1.55;;;0.90;;
64295;SDS011;51082;38.236;15.432;2022-08-04T06:27:03;1.33;;;1.20;;
64295;SDS011;51082;38.236;15.432;2022-08-04T06:28:10;3.28;;;1.08;;
64295;SDS011;51082;38.236;15.432;2022-08-04T06:29:13;1.20;;;1.10;;
64295;SDS011;51082;38.236;15.432;2022-08-04T06:30:24;1.38;;;1.08;;
64295;SDS011;51082;38.236;15.432;2022-08-04T06:31:28;1.25;;;1.15;;
64295;SDS011;51082;38.236;15.432;2022-08-04T06:32:42;1.67;;;0.82;;
64295;SDS011;51082;38.236;15.432;2022-08-04T06:33:55;0.88;;;0.88;;
64295;SDS011;51082;38.236;15.432;2022-08-04T06:34:57;1.38;;;0.98;;
64295;SDS011;51082;38.236;15.432;2022-08-04T06:36:03;1.92;;;1.33;;
64295;SDS011;51082;38.236;15.432;2022-08-04T06:37:07;1.00;;;0.90;;
64295;SDS011;51082;38.236;15.432;2022-08-04T06:38:10;1.10;;;0.95;;
64295;SDS011;51082;38.236;15.432;2022-08-04T06:39:13;1.05;;;0.95;;
64295;SDS011;51082;38.236;15.432;2022-08-04T06:40:17;1.23;;;1.10;;
64295;SDS011;51082;38.236;15.432;2022-08-04T06:41:20;1.52;;;0.80;;
64295;SDS011;51082;38.236;15.432;2022-08-04T06:42:25;2.17;;;1.25;;
64295;SDS011;51082;38.236;15.432;2022-08-04T06:43:28;2.67;;;1.10;;
64295;SDS011;51082;38.236;15.432;2022-08-04T06:44:33;0.70;;;0.70;;
64295;SDS011;51082;38.236;15.432;2022-08-04T06:45:36;0.80;;;0.80;;
64295;SDS011;51082;38.236;15.432;2022-08-04T06:46:40;2.00;;;1.15;;
64295;SDS011;51082;38.236;15.432;2022-08-04T06:47:44;0.70;;;0.70;;
64295;SDS011;51082;38.236;15.432;2022-08-04T06:48:48;1.20;;;0.93;;
64295;SDS011;51082;38.236;15.432;2022-08-04T06:49:52;1.05;;;0.80;;
64295;SDS011;51082;38.236;15.432;2022-08-04T06:50:55;0.70;;;0.70;;
64295;SDS011;51082;38.236;15.432;2022-08-04T06:52:01;2.03;;;1.10;;
64295;SDS011;51082;38.236;15.432;2022-08-04T06:53:04;0.77;;;0.77;;
64295;SDS011;51082;38.236;15.432;2022-08-04T06:54:06;1.33;;;1.13;;
64295;SDS011;51082;38.236;15.432;2022-08-04T06:55:08;0.98;;;0.93;;
64295;SDS011;51082;38.236;15.432;2022-08-04T06:56:11;1.10;;;0.90;;
64295;SDS011;51082;38.236;15.432;2022-08-04T06:57:16;2.72;;;0.80;;
64295;SDS011;51082;38.236;15.432;2022-08-04T06:58:21;1.00;;;0.90;;
64295;SDS011;51082;38.236;15.432;2022-08-04T06:59:27;1.73;;;1.05;;
64295;SDS011;51082;38.236;15.432;2022-08-04T07:00:29;0.80;;;0.75;;
64295;SDS011;51082;38.236;15.432;2022-08-04T07:01:33;1.00;;;0.90;;
64295;SDS011;51082;38.236;15.432;2022-08-04T07:02:38;0.60;;;0.60;;
64295;SDS011;51082;38.236;15.432;2022-08-04T07:03:45;0.75;;;0.75;;
64295;SDS011;51082;38.236;15.432;2022-08-04T07:04:47;1.15;;;0.90;;
64295;SDS011;51082;38.236;15.432;2022-08-04T07:05:50;1.25;;;1.00;;
64295;SDS011;51082;38.236;15.432;2022-08-04T07:06:52;1.13;;;0.80;;
64295;SDS011;51082;38.236;15.432;2022-08-04T07:07:56;0.85;;;0.80;;
64295;SDS011;51082;38.236;15.432;2022-08-04T07:08:58;0.95;;;0.80;;
64295;SDS011;51082;38.236;15.432;2022-08-04T07:10:03;0.80;;;0.77;;
64295;SDS011;51082;38.236;15.432;2022-08-04T07:11:06;0.70;;;0.65;;
64295;SDS011;51082;38.236;15.432;2022-08-04T07:12:09;1.95;;;0.90;;
64295;SDS011;51082;38.236;15.432;2022-08-04T07:13:11;3.47;;;0.82;;
64295;SDS011;51082;38.236;15.432;2022-08-04T07:14:14;0.65;;;0.65;;
64295;SDS011;51082;38.236;15.432;2022-08-04T07:15:20;0.63;;;0.63;;
64295;SDS011;51082;38.236;15.432;2022-08-04T07:16:23;0.80;;;0.80;;
64295;SDS011;51082;38.236;15.432;2022-08-04T07:17:26;0.60;;;0.60;;
64295;SDS011;51082;38.236;15.432;2022-08-04T07:18:30;1.33;;;0.90;;
64295;SDS011;51082;38.236;15.432;2022-08-04T07:19:32;0.80;;;0.77;;
64295;SDS011;51082;38.236;15.432;2022-08-04T07:20:35;1.40;;;0.82;;
64295;SDS011;51082;38.236;15.432;2022-08-04T07:21:42;1.35;;;0.90;;
64295;SDS011;51082;38.236;15.432;2022-08-04T07:22:44;1.35;;;0.80;;
64295;SDS011;51082;38.236;15.432;2022-08-04T07:23:48;1.00;;;0.80;;
64295;SDS011;51082;38.236;15.432;2022-08-04T07:24:52;0.80;;;0.80;;
64295;SDS011;51082;38.236;15.432;2022-08-04T07:25:56;0.57;;;0.57;;
64295;SDS011;51082;38.236;15.432;2022-08-04T07:26:58;1.30;;;0.95;;
64295;SDS011;51082;38.236;15.432;2022-08-04T07:28:01;1.00;;;0.90;;
64295;SDS011;51082;38.236;15.432;2022-08-04T07:29:03;0.90;;;0.90;;
64295;SDS011;51082;38.236;15.432;2022-08-04T07:30:06;0.88;;;0.88;;
64295;SDS011;51082;38.236;15.432;2022-08-04T07:31:12;0.77;;;0.65;;
64295;SDS011;51082;38.236;15.432;2022-08-04T07:32:17;0.95;;;0.85;;
64295;SDS011;51082;38.236;15.432;2022-08-04T07:33:20;3.05;;;0.90;;
64295;SDS011;51082;38.236;15.432;2022-08-04T07:34:23;2.13;;;1.00;;
64295;SDS011;51082;38.236;15.432;2022-08-04T07:35:27;0.80;;;0.70;;
64295;SDS011;51082;38.236;15.432;2022-08-04T07:36:30;1.20;;;0.90;;